sensor_id;sensor_type;location;lat;lon;timestamp;P1;durP1;ratioP1;P2;durP2;ratioP2
48375;SDS011;34178;50.904;11.560;2023-07-29T00:00:56;3.13;;;1.60;;
48375;SDS011;34178;50.904;11.560;2023-07-29T00:03:22;2.05;;;1.20;;
48375;SDS011;34178;50.904;11.560;2023-07-29T00:05:47;2.85;;;1.60;;
48375;SDS011;34178;50.904;11.560;2023-07-29T00:08:13;8.57;;;1.73;;
48375;SDS011;34178;50.904;11.560;2023-07-29T00:10:39;3.50;;;1.70;;
48375;SDS011;34178;50.904;11.560;2023-07-29T00:13:05;3.10;;;1.65;;
48375;SDS011;34178;50.904;11.560;2023-07-29T00:15:31;3.40;;;1.88;;
48375;SDS011;34178;50.904;11.560;2023-07-29T00:17:57;3.03;;;1.80;;
48375;SDS011;34178;50.904;11.560;2023-07-29T00:20:23;4.28;;;1.90;;
48375;SDS011;34178;50.904;11.560;2023-07-29T00:22:48;3.53;;;2.00;;
48375;SDS011;34178;50.904;11.560;2023-07-29T00:25:20;2.97;;;1.55;;
48375;SDS011;34178;50.904;11.560;2023-07-29T00:27:47;5.10;;;1.73;;
48375;SDS011;34178;50.904;11.560;2023-07-29T00:30:12;3.60;;;1.77;;
48375;SDS011;34178;50.904;11.560;2023-07-29T00:32:38;3.42;;;1.65;;
48375;SDS011;34178;50.904;11.560;2023-07-29T00:35:04;3.53;;;1.88;;
48375;SDS011;34178;50.904;11.560;2023-07-29T00:37:30;4.07;;;1.90;;
48375;SDS011;34178;50.904;11.560;2023-07-29T00:39:56;3.67;;;2.00;;
48375;SDS011;34178;50.904;11.560;2023-07-29T00:42:23;7.00;;;2.13;;
48375;SDS011;34178;50.904;11.560;2023-07-29T00:44:49;4.55;;;2.10;;
48375;SDS011;34178;50.904;11.560;2023-07-29T00:47:15;4.60;;;1.90;;
48375;SDS011;34178;50.904;11.560;2023-07-29T00:49:41;2.97;;;1.83;;
48375;SDS011;34178;50.904;11.560;2023-07-29T00:52:11;2.55;;;1.60;;
48375;SDS011;34178;50.904;11.560;2023-07-29T00:54:40;3.55;;;1.90;;
48375;SDS011;34178;50.904;11.560;2023-07-29T00:57:06;5.82;;;1.90;;
48375;SDS011;34178;50.904;11.560;2023-07-29T00:59:35;3.92;;;1.90;;
48375;SDS011;34178;50.904;11.560;2023-07-29T01:02:01;3.03;;;1.80;;
48375;SDS011;34178;50.904;11.560;2023-07-29T01:04:27;3.13;;;1.88;;
48375;SDS011;34178;50.904;11.560;2023-07-29T01:06:56;2.38;;;1.50;;
48375;SDS011;34178;50.904;11.560;2023-07-29T01:12:17;2.90;;;1.70;;
48375;SDS011;34178;50.904;11.560;2023-07-29T01:15:05;3.30;;;1.92;;
48375;SDS011;34178;50.904;11.560;2023-07-29T01:17:55;4.55;;;2.33;;
48375;SDS011;34178;50.904;11.560;2023-07-29T01:20:24;3.22;;;1.63;;
48375;SDS011;34178;50.904;11.560;2023-07-29T01:22:51;2.85;;;1.83;;
48375;SDS011;34178;50.904;11.560;2023-07-29T01:25:17;2.72;;;1.70;;
48375;SDS011;34178;50.904;11.560;2023-07-29T01:27:44;2.97;;;1.80;;
48375;SDS011;34178;50.904;11.560;2023-07-29T01:30:10;3.50;;;2.00;;
48375;SDS011;34178;50.904;11.560;2023-07-29T01:32:43;3.20;;;1.85;;
48375;SDS011;34178;50.904;11.560;2023-07-29T01:35:30;4.93;;;1.90;;
48375;SDS011;34178;50.904;11.560;2023-07-29T01:38:01;3.78;;;2.30;;
48375;SDS011;34178;50.904;11.560;2023-07-29T01:40:34;4.50;;;2.00;;
48375;SDS011;34178;50.904;11.560;2023-07-29T01:43:00;4.00;;;2.13;;
48375;SDS011;34178;50.904;11.560;2023-07-29T01:45:27;3.10;;;2.03;;
48375;SDS011;34178;50.904;11.560;2023-07-29T01:47:58;3.80;;;2.15;;
48375;SDS011;34178;50.904;11.560;2023-07-29T01:50:23;3.03;;;1.90;;
48375;SDS011;34178;50.904;11.560;2023-07-29T01:52:49;5.45;;;2.40;;
48375;SDS011;34178;50.904;11.560;2023-07-29T01:55:14;3.22;;;2.08;;
48375;SDS011;34178;50.904;11.560;2023-07-29T01:57:40;3.72;;;2.00;;
48375;SDS011;34178;50.904;11.560;2023-07-29T02:00:06;5.45;;;2.08;;
48375;SDS011;34178;50.904;11.560;2023-07-29T02:02:33;4.25;;;2.00;;
48375;SDS011;34178;50.904;11.560;2023-07-29T02:04:58;3.75;;;2.15;;
48375;SDS011;34178;50.904;11.560;2023-07-29T02:07:24;3.50;;;2.20;;
48375;SDS011;34178;50.904;11.560;2023-07-29T02:09:51;4.85;;;2.10;;
48375;SDS011;34178;50.904;11.560;2023-07-29T02:12:17;5.07;;;2.00;;
48375;SDS011;34178;50.904;11.560;2023-07-29T02:14:42;5.20;;;2.40;;
48375;SDS011;34178;50.904;11.560;2023-07-29T02:17:08;3.08;;;2.13;;
48375;SDS011;34178;50.904;11.560;2023-07-29T02:19:34;5.28;;;2.28;;
48375;SDS011;34178;50.904;11.560;2023-07-29T02:22:00;3.92;;;2.25;;
48375;SDS011;34178;50.904;11.560;2023-07-29T02:24:25;3.78;;;2.13;;
48375;SDS011;34178;50.904;11.560;2023-07-29T02:26:51;6.28;;;2.22;;
48375;SDS011;34178;50.904;11.560;2023-07-29T02:29:17;5.68;;;2.28;;
48375;SDS011;34178;50.904;11.560;2023-07-29T02:31:42;4.90;;;2.30;;
48375;SDS011;34178;50.904;11.560;2023-07-29T02:34:09;5.38;;;2.53;;
48375;SDS011;34178;50.904;11.560;2023-07-29T02:36:34;5.72;;;2.13;;
48375;SDS011;34178;50.904;11.560;2023-07-29T02:39:00;4.97;;;1.92;;
48375;SDS011;34178;50.904;11.560;2023-07-29T02:41:26;3.42;;;2.10;;
48375;SDS011;34178;50.904;11.560;2023-07-29T02:43:51;3.60;;;2.20;;
48375;SDS011;34178;50.904;11.560;2023-07-29T02:46:17;5.05;;;2.20;;
48375;SDS011;34178;50.904;11.560;2023-07-29T02:48:44;3.40;;;2.00;;
48375;SDS011;34178;50.904;11.560;2023-07-29T02:51:10;6.78;;;2.75;;
48375;SDS011;34178;50.904;11.560;2023-07-29T02:53:35;3.72;;;2.25;;
48375;SDS011;34178;50.904;11.560;2023-07-29T02:56:02;6.60;;;2.40;;
48375;SDS011;34178;50.904;11.560;2023-07-29T02:58:28;4.50;;;2.17;;
48375;SDS011;34178;50.904;11.560;2023-07-29T03:01:00;4.32;;;2.35;;
48375;SDS011;34178;50.904;11.560;2023-07-29T03:03:27;3.83;;;2.38;;
48375;SDS011;34178;50.904;11.560;2023-07-29T03:06:02;5.07;;;2.83;;
48375;SDS011;34178;50.904;11.560;2023-07-29T03:08:29;4.47;;;2.20;;
48375;SDS011;34178;50.904;11.560;2023-07-29T03:10:58;4.05;;;2.25;;
48375;SDS011;34178;50.904;11.560;2023-07-29T03:13:31;6.32;;;2.33;;
48375;SDS011;34178;50.904;11.560;2023-07-29T03:18:36;6.03;;;2.58;;
48375;SDS011;34178;50.904;11.560;2023-07-29T03:21:02;3.53;;;2.20;;
48375;SDS011;34178;50.904;11.560;2023-07-29T03:23:29;5.05;;;2.50;;
48375;SDS011;34178;50.904;11.560;2023-07-29T03:25:55;4.82;;;2.80;;
48375;SDS011;34178;50.904;11.560;2023-07-29T03:28:25;5.00;;;2.70;;
48375;SDS011;34178;50.904;11.560;2023-07-29T03:30:53;3.22;;;2.13;;
48375;SDS011;34178;50.904;11.560;2023-07-29T03:33:19;4.22;;;2.40;;
48375;SDS011;34178;50.904;11.560;2023-07-29T03:35:44;5.78;;;2.42;;
48375;SDS011;34178;50.904;11.560;2023-07-29T03:38:11;3.90;;;2.30;;
48375;SDS011;34178;50.904;11.560;2023-07-29T03:40:40;3.58;;;2.25;;
48375;SDS011;34178;50.904;11.560;2023-07-29T03:43:06;4.72;;;2.65;;
48375;SDS011;34178;50.904;11.560;2023-07-29T03:45:33;6.15;;;2.50;;
48375;SDS011;34178;50.904;11.560;2023-07-29T03:47:59;4.55;;;2.60;;
48375;SDS011;34178;50.904;11.560;2023-07-29T03:50:25;4.60;;;2.75;;
48375;SDS011;34178;50.904;11.560;2023-07-29T03:52:51;5.75;;;2.83;;
48375;SDS011;34178;50.904;11.560;2023-07-29T03:55:17;5.95;;;2.90;;
48375;SDS011;34178;50.904;11.560;2023-07-29T03:57:43;6.20;;;2.78;;
48375;SDS011;34178;50.904;11.560;2023-07-29T04:00:09;5.18;;;2.90;;
48375;SDS011;34178;50.904;11.560;2023-07-29T04:02:35;4.82;;;3.03;;
48375;SDS011;34178;50.904;11.560;2023-07-29T04:05:05;4.35;;;2.95;;
48375;SDS011;34178;50.904;11.560;2023-07-29T04:07:34;5.90;;;2.78;;
48375;SDS011;34178;50.904;11.560;2023-07-29T04:10:00;5.00;;;3.38;;
48375;SDS011;34178;50.904;11.560;2023-07-29T04:12:26;5.68;;;3.13;;
48375;SDS011;34178;50.904;11.560;2023-07-29T04:14:52;6.75;;;3.35;;
48375;SDS011;34178;50.904;11.560;2023-07-29T04:17:18;5.40;;;2.90;;
48375;SDS011;34178;50.904;11.560;2023-07-29T04:19:44;8.60;;;3.13;;
48375;SDS011;34178;50.904;11.560;2023-07-29T04:22:10;5.55;;;3.38;;
48375;SDS011;34178;50.904;11.560;2023-07-29T04:24:35;5.90;;;3.20;;
48375;SDS011;34178;50.904;11.560;2023-07-29T04:27:01;6.25;;;3.50;;
48375;SDS011;34178;50.904;11.560;2023-07-29T04:29:28;5.00;;;3.30;;
48375;SDS011;34178;50.904;11.560;2023-07-29T04:31:54;7.38;;;3.00;;
48375;SDS011;34178;50.904;11.560;2023-07-29T04:34:19;6.15;;;3.00;;
48375;SDS011;34178;50.904;11.560;2023-07-29T04:36:45;5.30;;;3.38;;
48375;SDS011;34178;50.904;11.560;2023-07-29T04:39:12;4.85;;;3.05;;
48375;SDS011;34178;50.904;11.560;2023-07-29T04:41:37;5.30;;;3.50;;
48375;SDS011;34178;50.904;11.560;2023-07-29T04:44:03;6.07;;;3.35;;
48375;SDS011;34178;50.904;11.560;2023-07-29T04:46:29;5.00;;;3.10;;
48375;SDS011;34178;50.904;11.560;2023-07-29T04:48:54;4.85;;;3.28;;
48375;SDS011;34178;50.904;11.560;2023-07-29T04:51:20;6.13;;;3.58;;
48375;SDS011;34178;50.904;11.560;2023-07-29T04:53:46;4.47;;;3.03;;
48375;SDS011;34178;50.904;11.560;2023-07-29T04:56:12;5.20;;;3.42;;
48375;SDS011;34178;50.904;11.560;2023-07-29T04:58:38;6.03;;;3.58;;
48375;SDS011;34178;50.904;11.560;2023-07-29T05:01:04;7.47;;;3.05;;
48375;SDS011;34178;50.904;11.560;2023-07-29T05:03:30;5.18;;;3.25;;
48375;SDS011;34178;50.904;11.560;2023-07-29T05:05:56;6.47;;;2.78;;
48375;SDS011;34178;50.904;11.560;2023-07-29T05:08:23;6.50;;;2.97;;
48375;SDS011;34178;50.904;11.560;2023-07-29T05:10:49;4.70;;;2.80;;
48375;SDS011;34178;50.904;11.560;2023-07-29T05:13:15;6.70;;;2.80;;
48375;SDS011;34178;50.904;11.560;2023-07-29T05:15:42;4.28;;;3.05;;
48375;SDS011;34178;50.904;11.560;2023-07-29T05:18:07;4.50;;;2.83;;
48375;SDS011;34178;50.904;11.560;2023-07-29T05:20:33;4.43;;;2.90;;
48375;SDS011;34178;50.904;11.560;2023-07-29T05:22:59;4.20;;;2.88;;
48375;SDS011;34178;50.904;11.560;2023-07-29T05:25:25;5.03;;;2.80;;
48375;SDS011;34178;50.904;11.560;2023-07-29T05:27:51;4.38;;;2.78;;
48375;SDS011;34178;50.904;11.560;2023-07-29T05:30:17;5.18;;;2.58;;
48375;SDS011;34178;50.904;11.560;2023-07-29T05:32:43;3.83;;;2.28;;
48375;SDS011;34178;50.904;11.560;2023-07-29T05:35:08;3.10;;;1.90;;
48375;SDS011;34178;50.904;11.560;2023-07-29T05:37:35;4.25;;;1.90;;
48375;SDS011;34178;50.904;11.560;2023-07-29T05:40:03;4.03;;;1.83;;
48375;SDS011;34178;50.904;11.560;2023-07-29T05:42:29;4.90;;;2.20;;
48375;SDS011;34178;50.904;11.560;2023-07-29T05:44:55;2.40;;;1.65;;
48375;SDS011;34178;50.904;11.560;2023-07-29T05:47:21;3.25;;;1.77;;
48375;SDS011;34178;50.904;11.560;2023-07-29T05:49:46;3.63;;;1.85;;
48375;SDS011;34178;50.904;11.560;2023-07-29T05:52:12;3.15;;;1.90;;
48375;SDS011;34178;50.904;11.560;2023-07-29T05:54:38;3.45;;;2.05;;
48375;SDS011;34178;50.904;11.560;2023-07-29T05:57:04;3.05;;;1.75;;
48375;SDS011;34178;50.904;11.560;2023-07-29T05:59:30;5.90;;;2.17;;
48375;SDS011;34178;50.904;11.560;2023-07-29T06:01:55;3.58;;;1.75;;
48375;SDS011;34178;50.904;11.560;2023-07-29T06:04:21;4.18;;;2.10;;
48375;SDS011;34178;50.904;11.560;2023-07-29T06:06:47;3.78;;;2.17;;
48375;SDS011;34178;50.904;11.560;2023-07-29T06:09:13;2.42;;;1.50;;
48375;SDS011;34178;50.904;11.560;2023-07-29T06:11:39;2.90;;;1.40;;
48375;SDS011;34178;50.904;11.560;2023-07-29T06:14:04;4.68;;;1.60;;
48375;SDS011;34178;50.904;11.560;2023-07-29T06:16:30;3.50;;;2.00;;
48375;SDS011;34178;50.904;11.560;2023-07-29T06:18:56;3.67;;;1.38;;
48375;SDS011;34178;50.904;11.560;2023-07-29T06:21:22;4.40;;;1.50;;
48375;SDS011;34178;50.904;11.560;2023-07-29T06:23:48;3.47;;;1.55;;
48375;SDS011;34178;50.904;11.560;2023-07-29T06:26:14;3.65;;;1.55;;
48375;SDS011;34178;50.904;11.560;2023-07-29T06:28:40;3.85;;;1.27;;
48375;SDS011;34178;50.904;11.560;2023-07-29T06:31:05;3.05;;;1.60;;
48375;SDS011;34178;50.904;11.560;2023-07-29T06:33:31;2.92;;;1.23;;
48375;SDS011;34178;50.904;11.560;2023-07-29T06:35:57;2.20;;;1.50;;
48375;SDS011;34178;50.904;11.560;2023-07-29T06:38:22;2.50;;;1.48;;
48375;SDS011;34178;50.904;11.560;2023-07-29T06:40:48;5.13;;;1.55;;
48375;SDS011;34178;50.904;11.560;2023-07-29T06:43:14;2.67;;;1.30;;
48375;SDS011;34178;50.904;11.560;2023-07-29T06:45:40;3.25;;;1.45;;
48375;SDS011;34178;50.904;11.560;2023-07-29T06:48:05;4.35;;;1.50;;
48375;SDS011;34178;50.904;11.560;2023-07-29T06:50:31;3.55;;;1.73;;
48375;SDS011;34178;50.904;11.560;2023-07-29T06:52:57;4.35;;;1.50;;
48375;SDS011;34178;50.904;11.560;2023-07-29T06:55:22;2.53;;;1.40;;
48375;SDS011;34178;50.904;11.560;2023-07-29T06:57:48;2.25;;;1.30;;
48375;SDS011;34178;50.904;11.560;2023-07-29T07:00:14;3.47;;;1.17;;
48375;SDS011;34178;50.904;11.560;2023-07-29T07:02:39;5.07;;;1.55;;
48375;SDS011;34178;50.904;11.560;2023-07-29T07:05:06;1.75;;;1.20;;
48375;SDS011;34178;50.904;11.560;2023-07-29T07:07:32;3.72;;;1.58;;
48375;SDS011;34178;50.904;11.560;2023-07-29T07:09:58;2.08;;;1.05;;
48375;SDS011;34178;50.904;11.560;2023-07-29T07:12:23;3.15;;;1.60;;
48375;SDS011;34178;50.904;11.560;2023-07-29T07:14:49;2.90;;;1.20;;
48375;SDS011;34178;50.904;11.560;2023-07-29T07:17:15;1.48;;;1.10;;
48375;SDS011;34178;50.904;11.560;2023-07-29T07:19:41;1.98;;;1.20;;
48375;SDS011;34178;50.904;11.560;2023-07-29T07:22:07;2.22;;;1.20;;
48375;SDS011;34178;50.904;11.560;2023-07-29T07:24:32;2.38;;;1.20;;
48375;SDS011;34178;50.904;11.560;2023-07-29T07:26:58;2.75;;;1.20;;
48375;SDS011;34178;50.904;11.560;2023-07-29T07:29:24;1.92;;;1.20;;
48375;SDS011;34178;50.904;11.560;2023-07-29T07:31:51;2.70;;;1.10;;
48375;SDS011;34178;50.904;11.560;2023-07-29T07:34:18;2.58;;;1.00;;
48375;SDS011;34178;50.904;11.560;2023-07-29T07:36:44;1.60;;;0.85;;
48375;SDS011;34178;50.904;11.560;2023-07-29T07:39:10;2.63;;;1.15;;
48375;SDS011;34178;50.904;11.560;2023-07-29T07:41:35;1.50;;;1.00;;
48375;SDS011;34178;50.904;11.560;2023-07-29T07:44:01;0.90;;;0.70;;
48375;SDS011;34178;50.904;11.560;2023-07-29T07:46:28;1.88;;;0.82;;
48375;SDS011;34178;50.904;11.560;2023-07-29T07:48:53;1.02;;;0.80;;
48375;SDS011;34178;50.904;11.560;2023-07-29T07:51:19;1.83;;;0.90;;
48375;SDS011;34178;50.904;11.560;2023-07-29T07:53:45;1.52;;;0.77;;
48375;SDS011;34178;50.904;11.560;2023-07-29T07:56:11;3.72;;;0.90;;
48375;SDS011;34178;50.904;11.560;2023-07-29T07:58:36;1.42;;;0.80;;
48375;SDS011;34178;50.904;11.560;2023-07-29T08:01:03;2.88;;;0.82;;
48375;SDS011;34178;50.904;11.560;2023-07-29T08:03:30;1.02;;;0.63;;
48375;SDS011;34178;50.904;11.560;2023-07-29T08:05:56;1.52;;;0.70;;
48375;SDS011;34178;50.904;11.560;2023-07-29T08:08:21;2.50;;;0.80;;
48375;SDS011;34178;50.904;11.560;2023-07-29T08:10:47;3.72;;;0.70;;
48375;SDS011;34178;50.904;11.560;2023-07-29T08:13:13;2.15;;;0.80;;
48375;SDS011;34178;50.904;11.560;2023-07-29T08:15:38;0.98;;;0.65;;
48375;SDS011;34178;50.904;11.560;2023-07-29T08:18:06;1.02;;;0.68;;
48375;SDS011;34178;50.904;11.560;2023-07-29T08:20:32;1.08;;;0.60;;
48375;SDS011;34178;50.904;11.560;2023-07-29T08:22:57;1.50;;;0.60;;
48375;SDS011;34178;50.904;11.560;2023-07-29T08:25:23;1.23;;;0.65;;
48375;SDS011;34178;50.904;11.560;2023-07-29T08:27:49;0.93;;;0.60;;
48375;SDS011;34178;50.904;11.560;2023-07-29T08:30:14;0.82;;;0.52;;
48375;SDS011;34178;50.904;11.560;2023-07-29T08:32:41;1.80;;;0.80;;
48375;SDS011;34178;50.904;11.560;2023-07-29T08:35:07;1.52;;;0.80;;
48375;SDS011;34178;50.904;11.560;2023-07-29T08:37:33;1.75;;;0.90;;
48375;SDS011;34178;50.904;11.560;2023-07-29T08:39:59;1.40;;;0.80;;
48375;SDS011;34178;50.904;11.560;2023-07-29T08:42:26;2.22;;;0.80;;
48375;SDS011;34178;50.904;11.560;2023-07-29T08:44:56;2.08;;;1.00;;
48375;SDS011;34178;50.904;11.560;2023-07-29T08:47:23;2.30;;;1.08;;
48375;SDS011;34178;50.904;11.560;2023-07-29T08:49:49;1.85;;;0.90;;
48375;SDS011;34178;50.904;11.560;2023-07-29T08:52:17;2.10;;;1.02;;
48375;SDS011;34178;50.904;11.560;2023-07-29T08:54:43;2.67;;;1.10;;
48375;SDS011;34178;50.904;11.560;2023-07-29T08:57:10;2.55;;;1.00;;
48375;SDS011;34178;50.904;11.560;2023-07-29T08:59:35;2.08;;;1.10;;
48375;SDS011;34178;50.904;11.560;2023-07-29T09:02:02;2.30;;;1.10;;
48375;SDS011;34178;50.904;11.560;2023-07-29T09:04:27;2.38;;;1.27;;
48375;SDS011;34178;50.904;11.560;2023-07-29T09:06:53;3.10;;;1.25;;
48375;SDS011;34178;50.904;11.560;2023-07-29T09:09:21;3.03;;;1.05;;
48375;SDS011;34178;50.904;11.560;2023-07-29T09:11:47;4.18;;;1.45;;
48375;SDS011;34178;50.904;11.560;2023-07-29T09:14:13;2.42;;;1.23;;
48375;SDS011;34178;50.904;11.560;2023-07-29T09:16:39;2.65;;;1.00;;
48375;SDS011;34178;50.904;11.560;2023-07-29T09:19:06;2.50;;;1.27;;
48375;SDS011;34178;50.904;11.560;2023-07-29T09:21:32;2.58;;;1.48;;
48375;SDS011;34178;50.904;11.560;2023-07-29T09:23:57;2.08;;;1.20;;
48375;SDS011;34178;50.904;11.560;2023-07-29T09:26:29;2.63;;;1.10;;
48375;SDS011;34178;50.904;11.560;2023-07-29T09:28:56;3.75;;;1.75;;
48375;SDS011;34178;50.904;11.560;2023-07-29T09:31:24;3.17;;;1.42;;
48375;SDS011;34178;50.904;11.560;2023-07-29T09:34:04;3.22;;;1.70;;
48375;SDS011;34178;50.904;11.560;2023-07-29T09:36:31;2.90;;;1.27;;
48375;SDS011;34178;50.904;11.560;2023-07-29T09:38:58;3.22;;;1.70;;
48375;SDS011;34178;50.904;11.560;2023-07-29T09:41:24;2.78;;;1.40;;
48375;SDS011;34178;50.904;11.560;2023-07-29T09:44:00;5.05;;;1.42;;
48375;SDS011;34178;50.904;11.560;2023-07-29T09:46:37;3.63;;;1.50;;
48375;SDS011;34178;50.904;11.560;2023-07-29T09:49:06;2.45;;;1.50;;
48375;SDS011;34178;50.904;11.560;2023-07-29T09:51:39;1.98;;;1.17;;
48375;SDS011;34178;50.904;11.560;2023-07-29T09:54:05;2.20;;;1.40;;
48375;SDS011;34178;50.904;11.560;2023-07-29T09:56:31;2.15;;;1.30;;
48375;SDS011;34178;50.904;11.560;2023-07-29T09:58:57;3.10;;;1.50;;
48375;SDS011;34178;50.904;11.560;2023-07-29T10:01:23;2.80;;;1.50;;
48375;SDS011;34178;50.904;11.560;2023-07-29T10:03:49;3.75;;;1.50;;
48375;SDS011;34178;50.904;11.560;2023-07-29T10:06:15;2.58;;;1.40;;
48375;SDS011;34178;50.904;11.560;2023-07-29T10:08:42;2.92;;;1.20;;
48375;SDS011;34178;50.904;11.560;2023-07-29T10:11:09;3.83;;;1.85;;
48375;SDS011;34178;50.904;11.560;2023-07-29T10:13:36;4.95;;;1.48;;
48375;SDS011;34178;50.904;11.560;2023-07-29T10:16:03;3.10;;;1.83;;
48375;SDS011;34178;50.904;11.560;2023-07-29T10:18:30;2.53;;;1.50;;
48375;SDS011;34178;50.904;11.560;2023-07-29T10:20:57;3.45;;;1.60;;
48375;SDS011;34178;50.904;11.560;2023-07-29T10:23:24;2.90;;;1.45;;
48375;SDS011;34178;50.904;11.560;2023-07-29T10:25:59;2.38;;;1.40;;
48375;SDS011;34178;50.904;11.560;2023-07-29T10:28:31;2.70;;;1.48;;
48375;SDS011;34178;50.904;11.560;2023-07-29T10:30:58;4.95;;;1.70;;
48375;SDS011;34178;50.904;11.560;2023-07-29T10:33:25;3.88;;;1.75;;
48375;SDS011;34178;50.904;11.560;2023-07-29T10:35:51;3.25;;;1.58;;
48375;SDS011;34178;50.904;11.560;2023-07-29T10:38:19;3.38;;;1.48;;
48375;SDS011;34178;50.904;11.560;2023-07-29T10:40:54;3.25;;;1.63;;
48375;SDS011;34178;50.904;11.560;2023-07-29T10:45:55;4.15;;;1.75;;
48375;SDS011;34178;50.904;11.560;2023-07-29T10:53:46;2.97;;;1.63;;
48375;SDS011;34178;50.904;11.560;2023-07-29T10:56:12;4.10;;;1.95;;
48375;SDS011;34178;50.904;11.560;2023-07-29T10:58:38;6.63;;;2.00;;
48375;SDS011;34178;50.904;11.560;2023-07-29T11:01:12;3.28;;;1.88;;
48375;SDS011;34178;50.904;11.560;2023-07-29T11:03:38;3.63;;;1.70;;
48375;SDS011;34178;50.904;11.560;2023-07-29T11:06:04;2.90;;;1.55;;
48375;SDS011;34178;50.904;11.560;2023-07-29T11:08:30;3.60;;;1.73;;
48375;SDS011;34178;50.904;11.560;2023-07-29T11:13:28;4.15;;;1.60;;
48375;SDS011;34178;50.904;11.560;2023-07-29T11:18:23;3.55;;;1.67;;
48375;SDS011;34178;50.904;11.560;2023-07-29T11:20:54;3.17;;;1.52;;
48375;SDS011;34178;50.904;11.560;2023-07-29T11:23:26;3.17;;;1.40;;
48375;SDS011;34178;50.904;11.560;2023-07-29T11:25:57;5.90;;;1.88;;
48375;SDS011;34178;50.904;11.560;2023-07-29T11:28:23;6.10;;;1.60;;
48375;SDS011;34178;50.904;11.560;2023-07-29T11:30:50;2.33;;;1.23;;
48375;SDS011;34178;50.904;11.560;2023-07-29T11:33:25;3.33;;;1.63;;
48375;SDS011;34178;50.904;11.560;2023-07-29T11:35:53;4.05;;;1.40;;
48375;SDS011;34178;50.904;11.560;2023-07-29T11:38:20;3.05;;;1.50;;
48375;SDS011;34178;50.904;11.560;2023-07-29T11:40:56;4.18;;;1.75;;
48375;SDS011;34178;50.904;11.560;2023-07-29T11:43:23;2.85;;;1.60;;
48375;SDS011;34178;50.904;11.560;2023-07-29T11:45:50;4.35;;;1.77;;
48375;SDS011;34178;50.904;11.560;2023-07-29T11:48:16;3.33;;;1.35;;
48375;SDS011;34178;50.904;11.560;2023-07-29T11:50:42;4.78;;;1.80;;
48375;SDS011;34178;50.904;11.560;2023-07-29T11:53:08;3.35;;;1.55;;
48375;SDS011;34178;50.904;11.560;2023-07-29T11:55:34;4.05;;;1.50;;
48375;SDS011;34178;50.904;11.560;2023-07-29T14:07:28;3.00;;;1.58;;
48375;SDS011;34178;50.904;11.560;2023-07-29T14:09:54;3.45;;;1.60;;
48375;SDS011;34178;50.904;11.560;2023-07-29T14:12:19;4.25;;;1.55;;
48375;SDS011;34178;50.904;11.560;2023-07-29T14:14:45;2.70;;;1.27;;
48375;SDS011;34178;50.904;11.560;2023-07-29T14:17:11;2.67;;;1.45;;
48375;SDS011;34178;50.904;11.560;2023-07-29T14:19:37;3.60;;;1.35;;
48375;SDS011;34178;50.904;11.560;2023-07-29T14:22:02;4.68;;;1.65;;
48375;SDS011;34178;50.904;11.560;2023-07-29T14:24:28;2.70;;;1.48;;
48375;SDS011;34178;50.904;11.560;2023-07-29T14:26:54;3.08;;;1.48;;
48375;SDS011;34178;50.904;11.560;2023-07-29T14:29:20;3.55;;;1.80;;
48375;SDS011;34178;50.904;11.560;2023-07-29T14:31:45;4.50;;;1.60;;
48375;SDS011;34178;50.904;11.560;2023-07-29T14:34:11;4.75;;;1.80;;
48375;SDS011;34178;50.904;11.560;2023-07-29T14:36:37;4.55;;;1.70;;
48375;SDS011;34178;50.904;11.560;2023-07-29T14:39:02;3.85;;;2.03;;
48375;SDS011;34178;50.904;11.560;2023-07-29T14:41:30;4.03;;;1.83;;
48375;SDS011;34178;50.904;11.560;2023-07-29T14:43:56;3.55;;;1.65;;
48375;SDS011;34178;50.904;11.560;2023-07-29T14:46:22;3.58;;;1.67;;
48375;SDS011;34178;50.904;11.560;2023-07-29T14:48:47;4.43;;;1.65;;
48375;SDS011;34178;50.904;11.560;2023-07-29T14:51:13;7.93;;;1.77;;
48375;SDS011;34178;50.904;11.560;2023-07-29T14:53:39;83.75;;;6.25;;
48375;SDS011;34178;50.904;11.560;2023-07-29T14:56:05;8.52;;;2.55;;
48375;SDS011;34178;50.904;11.560;2023-07-29T14:58:30;6.15;;;2.10;;
48375;SDS011;34178;50.904;11.560;2023-07-29T15:00:56;10.43;;;2.25;;
48375;SDS011;34178;50.904;11.560;2023-07-29T15:03:23;9.90;;;2.90;;
48375;SDS011;34178;50.904;11.560;2023-07-29T15:05:49;9.25;;;3.25;;
48375;SDS011;34178;50.904;11.560;2023-07-29T15:08:14;7.22;;;3.28;;
48375;SDS011;34178;50.904;11.560;2023-07-29T15:10:40;6.82;;;2.90;;
48375;SDS011;34178;50.904;11.560;2023-07-29T15:13:09;6.07;;;2.50;;
48375;SDS011;34178;50.904;11.560;2023-07-29T15:15:35;6.28;;;2.90;;
48375;SDS011;34178;50.904;11.560;2023-07-29T15:18:01;5.43;;;2.72;;
48375;SDS011;34178;50.904;11.560;2023-07-29T15:20:26;6.57;;;3.80;;
48375;SDS011;34178;50.904;11.560;2023-07-29T15:22:52;7.07;;;2.95;;
48375;SDS011;34178;50.904;11.560;2023-07-29T15:25:18;6.32;;;2.95;;
48375;SDS011;34178;50.904;11.560;2023-07-29T15:27:43;10.25;;;3.30;;
48375;SDS011;34178;50.904;11.560;2023-07-29T15:30:09;5.55;;;2.80;;
48375;SDS011;34178;50.904;11.560;2023-07-29T15:32:37;5.97;;;2.85;;
48375;SDS011;34178;50.904;11.560;2023-07-29T15:35:02;5.45;;;2.70;;
48375;SDS011;34178;50.904;11.560;2023-07-29T15:37:28;5.57;;;3.05;;
48375;SDS011;34178;50.904;11.560;2023-07-29T15:39:54;6.88;;;3.42;;
48375;SDS011;34178;50.904;11.560;2023-07-29T15:42:20;8.85;;;4.35;;
48375;SDS011;34178;50.904;11.560;2023-07-29T15:44:45;8.93;;;5.43;;
48375;SDS011;34178;50.904;11.560;2023-07-29T15:47:11;7.22;;;3.10;;
48375;SDS011;34178;50.904;11.560;2023-07-29T15:49:40;9.20;;;2.67;;
48375;SDS011;34178;50.904;11.560;2023-07-29T15:52:06;4.97;;;2.58;;
48375;SDS011;34178;50.904;11.560;2023-07-29T15:54:33;9.57;;;3.20;;
48375;SDS011;34178;50.904;11.560;2023-07-29T15:56:59;7.82;;;3.40;;
48375;SDS011;34178;50.904;11.560;2023-07-29T15:59:24;6.97;;;3.60;;
48375;SDS011;34178;50.904;11.560;2023-07-29T16:01:51;9.00;;;3.40;;
48375;SDS011;34178;50.904;11.560;2023-07-29T16:04:17;5.90;;;3.38;;
48375;SDS011;34178;50.904;11.560;2023-07-29T16:06:42;7.57;;;2.45;;
48375;SDS011;34178;50.904;11.560;2023-07-29T16:09:08;6.40;;;1.73;;
48375;SDS011;34178;50.904;11.560;2023-07-29T16:11:34;5.80;;;1.75;;
48375;SDS011;34178;50.904;11.560;2023-07-29T16:13:59;8.82;;;1.83;;
48375;SDS011;34178;50.904;11.560;2023-07-29T16:16:25;4.82;;;1.80;;
48375;SDS011;34178;50.904;11.560;2023-07-29T16:18:53;3.72;;;1.60;;
48375;SDS011;34178;50.904;11.560;2023-07-29T16:21:18;4.70;;;1.45;;
48375;SDS011;34178;50.904;11.560;2023-07-29T16:23:44;4.15;;;1.65;;
48375;SDS011;34178;50.904;11.560;2023-07-29T16:26:10;3.50;;;1.70;;
48375;SDS011;34178;50.904;11.560;2023-07-29T16:28:37;3.58;;;1.75;;
48375;SDS011;34178;50.904;11.560;2023-07-29T16:31:03;3.25;;;1.30;;
48375;SDS011;34178;50.904;11.560;2023-07-29T16:33:28;4.85;;;1.50;;
48375;SDS011;34178;50.904;11.560;2023-07-29T16:35:54;3.28;;;1.50;;
48375;SDS011;34178;50.904;11.560;2023-07-29T16:38:20;4.40;;;1.30;;
48375;SDS011;34178;50.904;11.560;2023-07-29T16:40:45;3.45;;;1.67;;
48375;SDS011;34178;50.904;11.560;2023-07-29T16:43:11;3.70;;;1.60;;
48375;SDS011;34178;50.904;11.560;2023-07-29T16:45:37;4.22;;;2.10;;
48375;SDS011;34178;50.904;11.560;2023-07-29T16:48:03;4.30;;;1.67;;
48375;SDS011;34178;50.904;11.560;2023-07-29T16:50:28;3.75;;;1.63;;
48375;SDS011;34178;50.904;11.560;2023-07-29T16:52:54;3.78;;;1.50;;
48375;SDS011;34178;50.904;11.560;2023-07-29T16:55:21;4.20;;;1.30;;
48375;SDS011;34178;50.904;11.560;2023-07-29T16:57:47;5.20;;;1.67;;